TimeEDT,TemperatureF,Dew PointF,Humidity,Sea Level PressureIn,VisibilityMPH,Wind Direction,Wind SpeedMPH,Gust SpeedMPH,PrecipitationIn,Events,Conditions,WindDirDegrees,DateUTC
12:03 AM,66.2,64.4,94,29.92,3.0,South,9.2,-,0.03,Rain-Thunderstorm,Thunderstorms and Rain,190,2013-04-20 04:03:00
12:40 AM,66.2,64.4,94,29.90,3.0,South,8.1,-,0.18,Rain,Rain,180,2013-04-20 04:40:00
12:56 AM,66.9,64.0,90,29.90,5.0,South,6.9,-,0.22,Rain,Light Rain,180,2013-04-20 04:56:00
1:26 AM,66.2,64.4,94,29.89,9.0,SW,8.1,-,0.02,Rain,Light Rain,220,2013-04-20 05:26:00
1:37 AM,66.2,64.4,94,29.90,8.0,SW,8.1,-,0.02,Rain,Light Rain,230,2013-04-20 05:37:00
2:03 AM,66.2,64.4,94,29.89,10.0,SSW,4.6,-,0.00,Rain,Light Rain,210,2013-04-20 06:03:00
2:56 AM,66.9,64.0,90,29.90,9.0,SSW,5.8,-,0.01,Rain,Light Rain,210,2013-04-20 06:56:00
3:05 AM,66.2,64.4,94,29.89,7.0,SSW,4.6,-,0.01,Rain,Light Rain,210,2013-04-20 07:05:00
3:30 AM,66.2,64.4,94,29.89,3.0,SSW,5.8,-,0.07,Rain,Rain,210,2013-04-20 07:30:00
3:56 AM,66.9,64.0,90,29.89,3.0,SW,6.9,-,0.16,Rain,Rain,220,2013-04-20 07:56:00
5:03 AM,62.6,57.2,82,29.91,8.0,NW,18.4,27.6,0.00,Rain,Light Rain,310,2013-04-20 09:03:00
5:11 AM,60.8,55.4,82,29.92,10.0,WNW,18.4,-,0.00,,Overcast,290,2013-04-20 09:11:00
5:32 AM,57.2,51.8,82,29.94,9.0,WNW,17.3,24.2,0.00,Rain,Light Rain,290,2013-04-20 09:32:00
5:56 AM,57.0,51.1,81,29.96,10.0,WNW,10.4,-,0.00,,Mostly Cloudy,290,2013-04-20 09:56:00
6:56 AM,55.9,51.1,84,29.99,10.0,WNW,5.8,-,0.01,Rain,Light Rain,290,2013-04-20 10:56:00
7:25 AM,55.4,51.8,88,30.01,10.0,WNW,6.9,-,0.01,Rain,Light Rain,300,2013-04-20 11:25:00
7:56 AM,54.0,43.0,66,30.05,7.0,NNW,17.3,25.3,0.03,Rain,Light Rain,330,2013-04-20 11:56:00
8:11 AM,53.6,44.6,72,30.06,8.0,NNW,10.4,21.9,0.00,Rain,Light Rain,340,2013-04-20 12:11:00
8:56 AM,53.1,44.1,71,30.07,10.0,NNW,9.2,-,0.01,,Mostly Cloudy,340,2013-04-20 12:56:00
9:56 AM,54.0,44.1,69,30.10,10.0,North,8.1,-,N/A,,Scattered Clouds,350,2013-04-20 13:56:00
10:56 AM,55.0,42.1,62,30.12,10.0,North,12.7,-,N/A,,Overcast,350,2013-04-20 14:56:00
11:56 AM,55.0,39.0,55,30.14,10.0,North,10.4,19.6,N/A,,Clear,350,2013-04-20 15:56:00
12:56 PM,57.0,39.9,53,30.15,10.0,NNW,10.4,-,N/A,,Clear,340,2013-04-20 16:56:00
1:56 PM,57.9,39.0,49,30.15,10.0,North,10.4,-,N/A,,Clear,360,2013-04-20 17:56:00
2:56 PM,59.0,39.9,49,30.14,10.0,NNE,8.1,-,N/A,,Clear,20,2013-04-20 18:56:00
3:56 PM,59.0,39.9,49,30.13,10.0,NNW,9.2,-,N/A,,Clear,330,2013-04-20 19:56:00
4:56 PM,59.0,39.0,48,30.14,10.0,North,8.1,-,N/A,,Clear,360,2013-04-20 20:56:00
5:56 PM,57.9,37.0,46,30.15,10.0,North,9.2,-,N/A,,Clear,350,2013-04-20 21:56:00
6:56 PM,57.0,37.0,47,30.18,10.0,North,6.9,-,N/A,,Clear,360,2013-04-20 22:56:00
7:56 PM,55.9,39.0,53,30.21,10.0,North,6.9,-,N/A,,Clear,350,2013-04-20 23:56:00
8:56 PM,54.0,41.0,62,30.25,10.0,North,5.8,-,N/A,,Clear,350,2013-04-21 00:56:00
9:56 PM,53.1,39.0,59,30.28,10.0,NNE,5.8,-,N/A,,Clear,30,2013-04-21 01:56:00
10:56 PM,52.0,39.9,63,30.27,10.0,NNE,5.8,-,N/A,,Clear,30,2013-04-21 02:56:00
11:56 PM,50.0,39.9,68,30.27,10.0,North,4.6,-,N/A,,Clear,10,2013-04-21 03:56:00